Time;durP1;ratioP1;P1;durP2;ratioP2;P2;SDS_P1;SDS_P2;PMS_P1;PMS_P2;Temp;Humidity;BMP_temperature;BMP_pressure;BME280_temperature;BME280_humidity;BME280_pressure;Samples;Min_cycle;Max_cycle;Signal;HPM_P1;HPM_P2
2024/01/26 00:00:17;;;;;;;109.05;46.33;;;;;;;3.06;82.70;100120.78;6202686;23;20027;-76
2024/01/26 00:03:05;;;;;;;120.07;49.72;;;;;;;3.06;82.84;100142.59;6182804;23;20025;-77
2024/01/26 00:05:51;;;;;;;105.80;46.65;;;;;;;2.92;82.93;100130.09;6202716;23;20678;-78
2024/01/26 00:08:36;;;;;;;106.82;49.67;;;;;;;2.87;83.15;100140.22;6203703;23;20322;-78
2024/01/26 00:11:21;;;;;;;239.77;87.18;;;;;;;2.72;84.23;100130.31;6204081;23;20418;-78
2024/01/26 00:14:10;;;;;;;174.30;68.75;;;;;;;2.64;84.58;100143.41;6182061;23;20318;-79
2024/01/26 00:16:55;;;;;;;96.65;44.65;;;;;;;2.64;84.50;100113.72;6183791;23;20021;-77
2024/01/26 00:19:41;;;;;;;117.65;47.22;;;;;;;2.76;83.93;100133.47;6204155;23;20043;-78
2024/01/26 00:22:26;;;;;;;94.57;42.60;;;;;;;2.72;84.18;100132.13;6202941;23;20315;-79
2024/01/26 00:25:12;;;;;;;102.05;42.97;;;;;;;2.83;83.89;100149.41;6182672;23;20036;-78
2024/01/26 00:27:57;;;;;;;160.05;71.93;;;;;;;2.82;83.72;100142.50;6160718;23;20402;-78
2024/01/26 00:30:42;;;;;;;95.82;42.58;;;;;;;2.76;83.99;100141.34;6202922;23;20024;-78
2024/01/26 00:33:28;;;;;;;95.30;43.53;;;;;;;2.66;84.07;100146.69;6182589;23;20310;-78
2024/01/26 00:36:13;;;;;;;77.55;37.08;;;;;;;2.74;83.89;100151.97;6182426;23;20437;-80
2024/01/26 00:38:59;;;;;;;87.47;40.53;;;;;;;2.75;84.18;100166.75;6164704;23;20024;-79
2024/01/26 00:41:44;;;;;;;81.05;35.03;;;;;;;3.10;81.87;100162.31;6210065;23;20027;-76
2024/01/26 00:44:29;;;;;;;62.63;29.75;;;;;;;3.24;79.93;100171.41;6193204;23;20127;-78
2024/01/26 00:47:15;;;;;;;61.25;28.60;;;;;;;3.37;78.31;100160.44;6208736;23;20430;-77
2024/01/26 00:50:00;;;;;;;64.88;26.48;;;;;;;3.39;77.94;100158.50;6204355;23;20314;-78
2024/01/26 00:52:47;;;;;;;52.30;23.58;;;;;;;3.65;76.43;100176.78;6202758;23;20057;-78
2024/01/26 00:55:32;;;;;;;34.58;16.48;;;;;;;3.97;73.48;100178.63;6181412;23;20043;-77
2024/01/26 00:58:17;;;;;;;21.02;8.93;;;;;;;4.52;69.83;100177.13;6203127;23;20032;-77
2024/01/26 01:01:03;;;;;;;16.52;5.85;;;;;;;4.71;68.63;100173.31;6203275;23;20043;-77
2024/01/26 01:03:49;;;;;;;14.98;6.60;;;;;;;4.70;68.55;100159.31;6202271;23;20043;-77
2024/01/26 01:06:34;;;;;;;17.20;6.85;;;;;;;4.82;67.27;100167.66;6182525;23;20433;-78
2024/01/26 01:09:20;;;;;;;12.60;5.53;;;;;;;4.92;67.54;100176.22;6182362;23;20028;-78
2024/01/26 01:12:06;;;;;;;17.58;5.70;;;;;;;5.17;65.98;100171.69;6182935;23;20429;-78
2024/01/26 01:14:52;;;;;;;20.70;5.85;;;;;;;5.21;65.55;100161.63;6182115;23;20441;-78
2024/01/26 01:17:45;;;;;;;13.30;4.72;;;;;;;5.25;65.70;100165.53;6202400;23;20402;-78
2024/01/26 01:20:30;;;;;;;13.25;4.60;;;;;;;5.33;64.29;100160.25;6202440;23;20319;-78
2024/01/26 01:23:15;;;;;;;11.98;4.50;;;;;;;5.45;63.66;100172.03;6181332;23;20346;-77
2024/01/26 01:26:01;;;;;;;13.88;5.22;;;;;;;5.52;63.57;100172.97;6202338;23;20027;-78
2024/01/26 01:28:47;;;;;;;13.85;5.22;;;;;;;5.50;64.58;100166.22;6182023;23;20047;-78
2024/01/26 01:31:32;;;;;;;17.38;5.20;;;;;;;5.47;65.23;100180.56;6201890;23;20315;-77
2024/01/26 01:34:17;;;;;;;15.32;5.07;;;;;;;5.41;64.73;100154.91;6181551;23;20035;-77
2024/01/26 01:37:03;;;;;;;18.85;5.53;;;;;;;5.54;64.00;100170.16;6181254;23;20043;-77
2024/01/26 01:39:49;;;;;;;9.15;3.88;;;;;;;5.68;63.00;100166.78;6202046;23;20323;-78
2024/01/26 01:42:34;;;;;;;14.45;3.90;;;;;;;5.61;64.14;100159.72;6201760;23;20043;-79
2024/01/26 01:45:19;;;;;;;13.50;4.60;;;;;;;5.51;62.98;100163.41;6181096;23;20315;-80
2024/01/26 01:48:05;;;;;;;12.63;4.35;;;;;;;5.50;63.23;100168.88;6203553;23;20310;-77
2024/01/26 01:50:50;;;;;;;12.43;4.15;;;;;;;5.50;63.06;100166.22;6181531;23;20031;-79
2024/01/26 01:53:37;;;;;;;12.38;4.65;;;;;;;5.48;63.35;100174.28;6202529;23;20032;-76
2024/01/26 01:56:23;;;;;;;11.02;3.78;;;;;;;5.50;63.28;100167.03;6161641;23;20051;-80
2024/01/26 01:59:09;;;;;;;13.68;3.92;;;;;;;5.43;63.51;100157.38;6206001;23;20136;-77
2024/01/26 02:01:54;;;;;;;14.30;4.57;;;;;;;5.52;63.41;100167.69;6209816;23;20023;-79
2024/01/26 02:04:40;;;;;;;12.15;4.13;;;;;;;5.64;62.58;100173.41;6213612;23;20310;-80
2024/01/26 02:07:25;;;;;;;12.90;4.43;;;;;;;5.72;62.85;100175.16;6184855;23;20027;-79
2024/01/26 02:10:10;;;;;;;11.70;4.10;;;;;;;5.74;63.07;100170.53;6182345;23;20429;-78
2024/01/26 02:12:56;;;;;;;11.98;5.63;;;;;;;5.70;63.26;100167.44;6201937;23;20043;-79
2024/01/26 02:15:42;;;;;;;12.27;4.13;;;;;;;5.79;61.37;100165.53;6181936;23;20028;-79
2024/01/26 02:18:27;;;;;;;10.75;4.65;;;;;;;5.77;61.91;100159.66;6203801;23;20445;-79
2024/01/26 02:21:12;;;;;;;11.45;4.75;;;;;;;5.74;62.43;100158.16;6180638;23;20027;-79
2024/01/26 02:23:57;;;;;;;12.40;4.30;;;;;;;5.85;61.87;100164.84;6181318;23;20319;-79
2024/01/26 02:26:43;;;;;;;13.15;4.60;;;;;;;5.64;62.54;100151.47;6203066;23;20044;-79
2024/01/26 02:29:29;;;;;;;22.50;8.88;;;;;;;5.65;62.33;100155.75;6201901;23;20027;-79
2024/01/26 02:32:14;;;;;;;12.07;4.65;;;;;;;5.57;62.35;100152.16;6203067;23;20027;-78
2024/01/26 02:35:00;;;;;;;14.30;4.75;;;;;;;5.54;62.84;100151.69;6181434;23;20449;-78
2024/01/26 02:37:46;;;;;;;13.32;4.60;;;;;;;5.44;62.49;100148.47;6181447;23;20043;-79
2024/01/26 02:40:31;;;;;;;21.02;7.40;;;;;;;5.47;63.15;100159.47;6201972;23;20319;-78
2024/01/26 02:43:16;;;;;;;11.18;4.00;;;;;;;5.41;63.32;100154.91;6201081;23;20433;-80
2024/01/26 02:46:11;;;;;;;13.32;5.55;;;;;;;5.26;62.88;100146.91;6181484;23;20453;-79
2024/01/26 02:48:56;;;;;;;10.07;4.30;;;;;;;5.10;63.99;100149.63;6203316;23;20044;-79
2024/01/26 02:51:41;;;;;;;11.90;4.50;;;;;;;5.12;63.80;100142.38;6201624;23;20027;-79
2024/01/26 02:54:27;;;;;;;16.33;4.55;;;;;;;5.20;63.13;100144.13;6201775;23;20440;-78
2024/01/26 02:57:12;;;;;;;20.95;4.25;;;;;;;5.18;63.27;100146.16;6203593;23;20043;-79
2024/01/26 02:59:58;;;;;;;11.18;3.20;;;;;;;5.26;63.19;100157.44;6201336;23;20322;-79
2024/01/26 03:02:43;;;;;;;7.30;3.35;;;;;;;5.36;62.59;100157.25;6180201;23;20318;-78
2024/01/26 03:05:28;;;;;;;8.07;3.58;;;;;;;5.30;62.70;100157.94;6202243;23;20047;-78
2024/01/26 03:08:13;;;;;;;9.15;3.17;;;;;;;5.18;62.93;100149.59;6160553;23;20342;-80
2024/01/26 03:10:58;;;;;;;13.05;3.80;;;;;;;4.99;63.55;100147.38;6184399;23;20031;-79
2024/01/26 03:13:44;;;;;;;48.42;28.85;;;;;;;5.16;62.62;100164.75;6204418;23;20043;-79
2024/01/26 03:16:29;;;;;;;14.18;5.40;;;;;;;5.05;63.35;100165.13;6203581;23;20032;-79
2024/01/26 03:19:15;;;;;;;10.30;3.50;;;;;;;5.17;62.87;100165.56;6167041;23;20311;-79
2024/01/26 03:22:01;;;;;;;10.55;3.70;;;;;;;5.14;63.77;100165.91;6194039;23;20024;-78
2024/01/26 03:24:46;;;;;;;12.18;3.92;;;;;;;5.09;63.71;100158.53;6199269;23;20035;-79
2024/01/26 03:27:32;;;;;;;13.15;4.88;;;;;;;5.14;63.63;100171.16;6190120;23;20319;-79
2024/01/26 03:30:17;;;;;;;11.85;4.40;;;;;;;5.24;63.07;100175.25;6162601;23;20043;-79
2024/01/26 03:33:03;;;;;;;11.55;4.15;;;;;;;5.23;63.30;100175.41;6203722;23;20315;-80
2024/01/26 03:35:49;;;;;;;13.52;4.82;;;;;;;5.34;63.45;100180.31;6203960;23;20442;-79
2024/01/26 03:38:34;;;;;;;11.68;4.25;;;;;;;5.32;63.70;100174.38;6203483;23;20047;-80
2024/01/26 03:41:20;;;;;;;11.40;4.53;;;;;;;5.37;63.29;100177.34;6161419;23;20028;-79
2024/01/26 03:44:05;;;;;;;10.07;3.53;;;;;;;5.48;63.20;100184.84;6182134;23;20075;-79
2024/01/26 03:46:51;;;;;;;10.90;3.80;;;;;;;5.45;62.80;100182.59;6203579;23;20028;-79
2024/01/26 03:49:40;;;;;;;11.48;3.95;;;;;;;5.51;63.33;100187.13;6202861;23;20043;-80
2024/01/26 03:52:26;;;;;;;11.50;3.97;;;;;;;5.44;62.94;100173.00;6203306;23;20039;-79
2024/01/26 03:55:12;;;;;;;10.93;4.18;;;;;;;5.56;62.77;100192.72;6182840;23;20027;-79
2024/01/26 03:57:58;;;;;;;10.38;3.72;;;;;;;5.61;62.25;100196.66;6202961;23;20445;-79
2024/01/26 04:00:43;;;;;;;14.68;3.67;;;;;;;5.55;61.80;100183.19;6203925;23;20027;-79
2024/01/26 04:03:28;;;;;;;9.35;3.85;;;;;;;5.55;62.46;100193.72;6203169;23;20449;-78
2024/01/26 04:06:15;;;;;;;9.23;3.53;;;;;;;5.57;62.11;100204.09;6204550;23;20044;-80
2024/01/26 04:09:00;;;;;;;8.65;3.70;;;;;;;5.65;62.41;100216.41;6203548;23;20315;-78
2024/01/26 04:11:45;;;;;;;10.50;3.78;;;;;;;5.60;62.83;100208.19;6203071;23;20043;-79
2024/01/26 04:14:31;;;;;;;10.40;4.03;;;;;;;5.50;62.29;100195.22;6182077;23;20047;-79
2024/01/26 04:17:16;;;;;;;12.93;5.97;;;;;;;5.75;61.66;100209.91;6203617;23;20028;-79
2024/01/26 04:20:03;;;;;;;15.13;5.20;;;;;;;5.76;61.72;100214.19;6203080;23;20027;-78
2024/01/26 04:22:47;;;;;;;13.27;3.67;;;;;;;5.69;61.64;100207.97;6160739;23;20319;-78
2024/01/26 04:25:33;;;;;;;11.45;3.53;;;;;;;5.71;61.37;100206.00;6181889;23;20322;-78
2024/01/26 04:28:19;;;;;;;8.45;3.85;;;;;;;5.72;62.22;100201.53;6182687;23;20047;-79
2024/01/26 04:31:04;;;;;;;9.57;3.53;;;;;;;5.70;61.57;100199.09;6205199;23;20031;-78
2024/01/26 04:33:50;;;;;;;12.15;3.28;;;;;;;5.65;61.36;100192.69;6161262;23;20333;-78
2024/01/26 04:36:36;;;;;;;13.70;3.42;;;;;;;5.66;61.85;100203.03;6182881;23;20028;-79
2024/01/26 04:39:21;;;;;;;12.40;3.80;;;;;;;5.66;61.90;100196.97;6186015;23;20028;-79
2024/01/26 04:42:06;;;;;;;11.30;4.07;;;;;;;5.60;61.92;100200.28;6191615;23;20027;-77
2024/01/26 04:44:51;;;;;;;9.38;3.55;;;;;;;5.57;61.60;100209.34;6191870;23;20032;-79
2024/01/26 04:47:37;;;;;;;13.38;4.18;;;;;;;5.72;61.02;100212.09;6210010;23;20444;-79
2024/01/26 04:50:22;;;;;;;9.50;3.17;;;;;;;5.66;61.25;100207.50;6184341;23;20310;-79
2024/01/26 04:53:08;;;;;;;8.85;3.97;;;;;;;5.57;62.33;100217.28;6203672;23;20331;-79
2024/01/26 04:55:54;;;;;;;9.80;3.25;;;;;;;5.52;61.77;100217.81;6161198;23;20043;-78
2024/01/26 04:58:39;;;;;;;9.82;3.13;;;;;;;5.54;61.62;100221.06;6203793;23;20028;-79
2024/01/26 05:01:24;;;;;;;15.77;3.65;;;;;;;5.48;61.43;100210.41;6202391;23;20433;-79
2024/01/26 05:04:09;;;;;;;12.27;3.38;;;;;;;5.54;62.32;100217.63;6202504;23;20047;-78
2024/01/26 05:06:55;;;;;;;8.85;3.47;;;;;;;5.63;61.49;100223.69;6205333;23;20028;-79
2024/01/26 05:09:41;;;;;;;14.35;4.97;;;;;;;5.51;62.17;100226.69;6182812;23;20023;-79
2024/01/26 05:12:26;;;;;;;20.77;4.78;;;;;;;5.50;62.21;100222.41;6203935;23;20441;-79
2024/01/26 05:15:11;;;;;;;14.27;4.85;;;;;;;5.46;61.75;100218.50;6202971;23;20031;-78
2024/01/26 05:17:57;;;;;;;12.35;5.25;;;;;;;5.54;62.19;100241.34;6206090;23;20346;-79
2024/01/26 05:20:43;;;;;;;13.35;4.65;;;;;;;5.55;61.33;100246.47;6202904;23;20437;-80
2024/01/26 05:23:28;;;;;;;18.77;5.13;;;;;;;5.41;62.05;100234.00;6204035;23;20342;-79
2024/01/26 05:26:13;;;;;;;19.58;6.43;;;;;;;5.43;62.36;100255.75;6181336;23;20350;-80
2024/01/26 05:28:58;;;;;;;23.13;6.35;;;;;;;5.31;62.57;100249.19;6202366;23;20047;-79
2024/01/26 05:31:44;;;;;;;14.15;6.45;;;;;;;5.29;62.69;100251.16;6161157;23;20441;-80
2024/01/26 05:34:29;;;;;;;24.55;10.02;;;;;;;5.28;62.68;100245.06;6201849;23;20043;-79
2024/01/26 05:37:14;;;;;;;33.45;13.52;;;;;;;5.31;61.98;100251.84;6202114;23;20074;-81
2024/01/26 05:40:04;;;;;;;20.90;10.25;;;;;;;5.39;61.40;100246.53;6181635;23;20386;-79
2024/01/26 05:42:49;;;;;;;16.08;6.63;;;;;;;5.48;60.78;100257.84;6160173;23;20048;-80
2024/01/26 05:45:35;;;;;;;18.63;6.75;;;;;;;5.46;60.89;100249.31;6160286;23;20047;-78
2024/01/26 05:48:20;;;;;;;19.52;8.48;;;;;;;5.48;60.65;100261.31;6181061;23;20433;-80
2024/01/26 05:51:05;;;;;;;18.85;7.55;;;;;;;5.40;61.73;100260.53;6182636;23;20378;-78
2024/01/26 05:53:52;;;;;;;13.80;5.88;;;;;;;5.45;60.79;100260.81;6181303;23;20039;-78
2024/01/26 05:56:41;;;;;;;17.15;5.40;;;;;;;5.45;60.70;100258.19;6202083;23;20438;-78
2024/01/26 05:59:26;;;;;;;12.07;5.70;;;;;;;5.41;60.03;100249.00;6184957;23;20024;-78
2024/01/26 06:02:12;;;;;;;20.58;8.10;;;;;;;5.41;60.53;100260.34;6215070;23;20027;-77
2024/01/26 06:04:57;;;;;;;25.02;7.35;;;;;;;5.69;60.32;100262.53;6222186;23;20028;-80
2024/01/26 06:07:42;;;;;;;21.90;7.13;;;;;;;5.70;59.97;100272.94;6170829;23;20027;-80
2024/01/26 06:10:27;;;;;;;13.98;5.53;;;;;;;5.70;59.73;100270.31;6182873;23;20043;-80
2024/01/26 06:13:13;;;;;;;26.23;6.63;;;;;;;5.61;61.42;100263.41;6202822;23;20310;-79
2024/01/26 06:15:58;;;;;;;32.63;7.03;;;;;;;5.70;60.46;100269.44;6202385;23;20031;-81
2024/01/26 06:18:46;;;;;;;20.17;6.28;;;;;;;5.73;59.79;100274.38;6201752;23;20460;-80
2024/01/26 06:21:32;;;;;;;19.35;6.13;;;;;;;5.69;59.52;100275.72;6202175;23;20318;-80
2024/01/26 06:24:17;;;;;;;17.20;6.35;;;;;;;5.72;59.62;100272.75;6201445;23;20043;-80
2024/01/26 06:27:03;;;;;;;17.92;6.28;;;;;;;5.66;59.78;100276.06;6205273;23;20433;-81
2024/01/26 06:29:48;;;;;;;20.63;6.53;;;;;;;5.73;60.04;100283.13;6180075;23;20326;-80
2024/01/26 06:32:33;;;;;;;32.88;9.25;;;;;;;5.62;60.98;100286.16;6200553;23;20321;-80
2024/01/26 06:35:19;;;;;;;70.55;26.70;;;;;;;5.71;61.13;100279.84;6180462;23;20051;-79
2024/01/26 06:38:04;;;;;;;20.50;7.78;;;;;;;5.71;59.67;100271.13;6201898;23;20024;-81
2024/01/26 06:40:50;;;;;;;191.80;82.63;;;;;;;5.83;61.12;100285.56;6201772;23;20028;-81
2024/01/26 06:43:35;;;;;;;164.50;44.22;;;;;;;5.78;60.83;100286.06;6202285;23;20034;-79
2024/01/26 06:46:22;;;;;;;170.98;58.35;;;;;;;5.76;60.96;100287.22;6201676;23;20021;-81
2024/01/26 06:49:08;;;;;;;40.28;16.17;;;;;;;5.65;60.97;100290.25;6202562;23;20021;-80
2024/01/26 06:51:53;;;;;;;25.83;12.20;;;;;;;5.66;60.85;100294.53;6201402;23;20043;-79
2024/01/26 06:54:38;;;;;;;30.02;15.68;;;;;;;5.67;60.49;100283.84;6181401;23;20319;-80
2024/01/26 06:57:25;;;;;;;23.15;10.32;;;;;;;5.76;60.14;100293.31;6181383;23;20027;-80
2024/01/26 07:00:10;;;;;;;18.13;9.13;;;;;;;5.84;59.86;100294.28;6159543;23;20047;-80
2024/01/26 07:02:55;;;;;;;38.65;15.75;;;;;;;5.88;59.59;100301.69;6181714;23;20080;-79
2024/01/26 07:05:42;;;;;;;26.80;10.93;;;;;;;5.98;59.00;100307.59;6202277;23;20027;-81
2024/01/26 07:08:28;;;;;;;15.63;7.05;;;;;;;5.94;58.56;100285.19;6183252;23;20075;-79
2024/01/26 07:11:14;;;;;;;23.80;10.80;;;;;;;6.05;59.66;100304.25;6202254;23;20315;-80
2024/01/26 07:14:00;;;;;;;24.33;9.18;;;;;;;6.06;58.56;100300.66;6201546;23;20031;-81
2024/01/26 07:16:48;;;;;;;18.90;5.70;;;;;;;6.13;59.34;100312.97;6182906;23;20040;-81
2024/01/26 07:19:34;;;;;;;25.15;8.05;;;;;;;6.17;59.17;100311.63;6185531;23;20027;-78
2024/01/26 07:22:19;;;;;;;32.08;12.88;;;;;;;6.31;58.52;100315.34;6198935;23;20043;-79
2024/01/26 07:25:09;;;;;;;16.45;5.28;;;;;;;6.36;58.63;100323.56;6200032;23;20027;-78
2024/01/26 07:27:55;;;;;;;10.35;3.88;;;;;;;6.58;58.07;100323.72;6217029;23;20028;-79
2024/01/26 07:30:40;;;;;;;9.82;4.15;;;;;;;6.88;57.10;100312.25;6180688;23;20027;-78
2024/01/26 07:33:26;;;;;;;15.43;4.80;;;;;;;7.12;55.95;100305.09;6201966;23;20028;-78
2024/01/26 07:36:12;;;;;;;13.00;4.78;;;;;;;7.35;55.48;100320.88;6159708;23;20028;-79
2024/01/26 07:38:57;;;;;;;16.23;5.05;;;;;;;7.42;55.89;100305.91;6180653;23;20031;-79
2024/01/26 07:41:42;;;;;;;15.18;5.43;;;;;;;7.66;54.71;100320.69;6202400;23;20028;-81
2024/01/26 07:44:27;;;;;;;6.47;2.45;;;;;;;7.72;53.28;100330.53;6197602;23;20299;-78
2024/01/26 07:47:12;;;;;;;13.23;4.80;;;;;;;7.77;54.50;100325.53;6201808;23;20445;-81
2024/01/26 07:49:58;;;;;;;9.02;3.97;;;;;;;7.88;53.76;100332.97;6160371;23;20044;-79
2024/01/26 07:52:43;;;;;;;13.80;3.47;;;;;;;7.67;53.65;100334.72;6184446;23;20028;-80
2024/01/26 07:55:29;;;;;;;11.68;4.30;;;;;;;7.57;53.44;100327.91;6187193;23;20051;-79
2024/01/26 07:58:14;;;;;;;12.77;4.18;;;;;;;7.65;53.87;100342.88;6188655;23;20028;-79
2024/01/26 08:00:59;;;;;;;11.82;4.40;;;;;;;7.63;52.32;100344.88;6189763;23;20027;-79
2024/01/26 08:03:44;;;;;;;12.50;5.07;;;;;;;7.85;52.25;100351.06;6168735;23;20311;-79
2024/01/26 08:06:30;;;;;;;9.82;3.67;;;;;;;7.61;50.93;100338.94;6193247;23;20024;-78
2024/01/26 08:09:15;;;;;;;13.95;3.78;;;;;;;7.63;53.72;100339.56;6191382;23;20027;-82
2024/01/26 08:12:00;;;;;;;11.73;4.70;;;;;;;7.52;52.18;100332.94;6210917;23;20079;-78
2024/01/26 08:14:45;;;;;;;24.38;8.57;;;;;;;7.59;53.11;100338.31;6186264;23;20024;-78
2024/01/26 08:17:32;;;;;;;13.57;4.45;;;;;;;7.51;52.02;100331.28;6164911;23;20043;-78
2024/01/26 08:20:18;;;;;;;9.70;3.80;;;;;;;7.62;52.01;100332.66;6208732;23;20314;-78
2024/01/26 08:23:03;;;;;;;7.68;3.15;;;;;;;7.39;52.22;100341.47;6210458;23;20433;-78
2024/01/26 08:25:48;;;;;;;7.53;2.92;;;;;;;7.39;52.83;100338.00;6209819;23;20024;-78
2024/01/26 08:28:35;;;;;;;12.73;4.55;;;;;;;7.64;52.35;100334.09;6187140;23;20043;-79
2024/01/26 08:31:20;;;;;;;4.22;2.17;;;;;;;7.64;51.62;100336.72;6208008;23;20024;-79
2024/01/26 08:34:06;;;;;;;9.45;2.25;;;;;;;7.47;52.38;100342.41;6212177;23;20421;-79
2024/01/26 08:36:51;;;;;;;11.60;3.40;;;;;;;7.50;52.82;100347.34;6195120;23;20044;-79
2024/01/26 08:39:36;;;;;;;13.30;2.75;;;;;;;7.47;51.57;100348.50;6202625;23;20112;-80
2024/01/26 08:42:22;;;;;;;13.43;3.60;;;;;;;7.64;53.01;100343.84;6232695;23;20020;-80
2024/01/26 08:45:08;;;;;;;5.45;2.83;;;;;;;7.59;51.70;100344.41;6223441;23;20023;-80
2024/01/26 08:47:53;;;;;;;10.82;2.92;;;;;;;7.69;51.90;100335.38;6206007;23;20019;-79
2024/01/26 08:50:38;;;;;;;7.35;2.83;;;;;;;7.63;51.65;100335.09;6214175;23;20047;-82
2024/01/26 08:53:24;;;;;;;14.02;4.47;;;;;;;7.64;52.41;100357.91;6185321;23;20318;-81
2024/01/26 08:56:09;;;;;;;9.60;3.00;;;;;;;7.59;51.93;100359.47;6183047;23;20051;-79
2024/01/26 08:58:55;;;;;;;10.05;3.85;;;;;;;7.74;52.63;100357.66;6203476;23;20028;-80
2024/01/26 09:01:40;;;;;;;7.97;4.80;;;;;;;7.89;52.66;100361.06;6203040;23;20027;-79
2024/01/26 09:04:26;;;;;;;6.20;3.67;;;;;;;7.88;51.91;100366.56;6203120;23;20115;-81
2024/01/26 09:07:12;;;;;;;8.18;4.32;;;;;;;7.96;50.34;100333.88;6181956;23;20315;-79
2024/01/26 09:09:58;;;;;;;6.88;3.33;;;;;;;7.81;50.65;100357.72;6202488;23;20311;-79
2024/01/26 09:12:43;;;;;;;12.68;4.38;;;;;;;8.02;51.56;100347.22;6181032;23;20051;-80
2024/01/26 09:15:28;;;;;;;15.02;3.33;;;;;;;7.99;51.69;100360.81;6205173;23;20088;-79
2024/01/26 09:18:13;;;;;;;10.27;3.78;;;;;;;8.14;52.13;100354.66;6183977;23;20386;-79
2024/01/26 09:20:59;;;;;;;8.13;3.05;;;;;;;8.17;50.84;100346.34;6203277;23;20031;-79
2024/01/26 09:23:44;;;;;;;8.27;3.22;;;;;;;8.21;50.74;100353.75;6204235;23;20445;-79
2024/01/26 09:26:29;;;;;;;9.82;3.25;;;;;;;8.17;50.37;100341.88;6181648;23;20322;-79
2024/01/26 09:29:14;;;;;;;9.98;3.75;;;;;;;8.14;50.83;100352.00;6182057;23;20028;-78
2024/01/26 09:31:59;;;;;;;10.55;3.42;;;;;;;7.84;50.78;100350.25;6181267;23;20047;-79
2024/01/26 09:34:45;;;;;;;8.80;3.40;;;;;;;7.74;50.63;100339.13;6180825;23;20031;-80
2024/01/26 09:37:30;;;;;;;11.77;3.72;;;;;;;7.77;51.14;100357.28;6202581;23;20076;-79
2024/01/26 09:40:16;;;;;;;14.10;4.95;;;;;;;7.94;51.04;100352.59;6181286;23;20441;-77
2024/01/26 09:43:03;;;;;;;16.45;5.78;;;;;;;8.06;51.86;100348.47;6201857;23;20437;-77
2024/01/26 09:45:52;;;;;;;18.90;5.18;;;;;;;8.04;50.54;100344.38;6202868;23;20311;-80
2024/01/26 09:48:38;;;;;;;9.93;4.38;;;;;;;7.82;50.33;100349.59;6201539;23;20027;-80
2024/01/26 09:51:25;;;;;;;12.13;6.07;;;;;;;7.88;49.82;100348.84;6181836;23;20032;-79
2024/01/26 09:54:11;;;;;;;7.97;3.97;;;;;;;7.88;51.47;100354.16;6160827;23;20433;-80
2024/01/26 09:56:57;;;;;;;12.15;5.32;;;;;;;8.05;52.69;100344.19;6206315;23;20032;-79
2024/01/26 09:59:42;;;;;;;10.25;2.90;;;;;;;8.04;50.67;100352.31;6189421;23;20028;-78
2024/01/26 10:02:27;;;;;;;7.93;3.03;;;;;;;7.89;50.57;100341.72;6221931;23;20032;-79
2024/01/26 10:05:17;;;;;;;20.13;7.05;;;;;;;7.82;51.39;100328.41;6192758;23;20072;-79
2024/01/26 10:08:09;;;;;;;25.80;9.93;;;;;;;7.72;51.02;100322.59;6163555;23;20039;-80
2024/01/26 10:10:54;;;;;;;7.72;3.55;;;;;;;7.92;50.92;100337.91;6180671;23;20371;-80
2024/01/26 10:13:40;;;;;;;10.27;3.53;;;;;;;7.81;51.56;100331.28;6202762;23;20043;-80
2024/01/26 10:16:25;;;;;;;8.70;3.25;;;;;;;7.95;51.67;100343.66;6160316;23;20048;-79
2024/01/26 10:19:18;;;;;;;9.88;2.63;;;;;;;7.96;52.02;100340.00;6202427;23;20314;-79
2024/01/26 10:22:06;;;;;;;6.70;2.33;;;;;;;7.91;50.77;100333.63;6201839;23;20027;-80
2024/01/26 10:24:51;;;;;;;6.88;3.17;;;;;;;7.87;51.90;100330.53;6181624;23;20027;-79
2024/01/26 10:27:38;;;;;;;9.02;3.15;;;;;;;7.82;50.64;100325.78;6202264;23;20040;-79
2024/01/26 10:30:23;;;;;;;9.43;3.92;;;;;;;7.95;51.71;100319.00;6180065;23;20028;-80
2024/01/26 10:33:10;;;;;;;4.85;2.75;;;;;;;7.83;51.08;100305.41;6160531;23;20047;-78
2024/01/26 10:36:00;;;;;;;8.27;3.80;;;;;;;7.89;50.72;100308.13;6201935;23;20032;-78
2024/01/26 10:38:45;;;;;;;9.45;3.53;;;;;;;7.88;50.78;100309.16;6180406;23;20044;-80
2024/01/26 10:41:34;;;;;;;11.10;3.58;;;;;;;7.86;51.39;100307.69;6181397;23;20302;-80
2024/01/26 10:44:20;;;;;;;7.85;2.83;;;;;;;7.89;50.08;100305.50;6175726;23;20322;-80
2024/01/26 10:47:07;;;;;;;6.32;2.90;;;;;;;7.79;49.77;100286.44;6180952;23;20441;-78
2024/01/26 10:50:01;;;;;;;8.23;3.13;;;;;;;7.84;49.08;100288.56;6201442;23;20394;-78
2024/01/26 10:52:49;;;;;;;13.82;5.85;;;;;;;7.74;49.60;100278.25;6181765;23;20027;-80
2024/01/26 10:55:35;;;;;;;8.70;2.72;;;;;;;7.76;49.64;100286.81;6203034;23;20314;-78
2024/01/26 10:58:21;;;;;;;6.35;2.85;;;;;;;7.72;49.04;100280.25;6201502;23;20437;-79
2024/01/26 11:01:08;;;;;;;8.88;3.25;;;;;;;7.74;49.62;100283.56;6203896;23;20028;-80
2024/01/26 11:03:56;;;;;;;9.77;4.32;;;;;;;7.82;49.25;100280.78;6181369;23;20354;-81
2024/01/26 11:06:42;;;;;;;8.88;3.70;;;;;;;7.78;49.43;100276.88;6161646;23;20291;-80
2024/01/26 11:09:33;;;;;;;11.07;3.03;;;;;;;7.77;49.25;100262.03;6160901;23;20024;-78
2024/01/26 11:12:25;;;;;;;11.48;3.08;;;;;;;7.83;49.42;100281.59;6181419;23;20445;-78
2024/01/26 11:15:14;;;;;;;6.78;3.13;;;;;;;7.81;49.31;100273.88;6186404;23;20444;-81
2024/01/26 11:17:59;;;;;;;14.80;5.35;;;;;;;7.85;49.64;100275.13;6189570;23;20028;-80
2024/01/26 11:20:51;;;;;;;3.35;2.38;;;;;;;7.84;48.28;100268.19;6174892;23;20027;-80
2024/01/26 11:23:41;;;;;;;10.50;4.68;;;;;;;7.81;50.07;100265.09;6199574;23;20032;-77
2024/01/26 11:26:26;;;;;;;8.20;3.55;;;;;;;7.79;49.61;100257.34;6215369;23;20027;-80
2024/01/26 11:29:12;;;;;;;13.85;3.50;;;;;;;7.76;49.50;100255.06;6187396;23;20472;-80
2024/01/26 11:31:58;;;;;;;8.13;2.92;;;;;;;7.77;49.48;100242.66;6208850;23;20032;-80
2024/01/26 11:34:45;;;;;;;6.72;3.10;;;;;;;7.76;50.23;100241.03;6204435;23;20032;-79
2024/01/26 11:37:31;;;;;;;8.68;4.35;;;;;;;7.73;49.61;100236.91;6182838;23;20032;-77
2024/01/26 11:40:19;;;;;;;15.93;6.07;;;;;;;7.77;50.09;100243.50;6182527;23;20028;-80
2024/01/26 11:43:04;;;;;;;11.20;4.63;;;;;;;7.77;48.32;100219.69;6183169;23;20319;-78
2024/01/26 11:45:50;;;;;;;18.35;6.22;;;;;;;7.85;49.24;100240.72;6202894;23;20103;-78
2024/01/26 11:48:36;;;;;;;13.40;4.40;;;;;;;7.86;49.21;100230.94;6203069;23;20031;-78
2024/01/26 11:51:21;;;;;;;7.47;2.50;;;;;;;7.92;48.92;100232.03;6204002;23;20032;-81
2024/01/26 11:54:08;;;;;;;9.32;3.33;;;;;;;7.88;50.10;100227.09;6182214;23;20023;-80
2024/01/26 11:56:53;;;;;;;6.07;3.08;;;;;;;8.04;48.54;100226.03;6183281;23;20039;-79
2024/01/26 11:59:39;;;;;;;5.60;2.83;;;;;;;8.12;49.01;100222.47;6182219;23;20434;-79
2024/01/26 12:02:25;;;;;;;10.68;4.47;;;;;;;8.17;48.20;100211.31;6161536;23;20027;-80
2024/01/26 12:05:10;;;;;;;18.13;5.45;;;;;;;8.15;48.49;100211.50;6182622;23;20031;-81
2024/01/26 12:07:56;;;;;;;5.18;3.00;;;;;;;8.10;48.86;100201.47;6181871;23;20043;-81
2024/01/26 12:10:42;;;;;;;12.45;4.68;;;;;;;8.11;48.47;100202.28;6162580;23;20076;-80
2024/01/26 12:13:28;;;;;;;14.93;4.95;;;;;;;8.15;48.86;100208.00;6204911;23;20028;-79
2024/01/26 12:16:14;;;;;;;9.13;5.00;;;;;;;8.19;48.47;100196.06;6182595;23;20032;-79
2024/01/26 12:19:01;;;;;;;9.18;3.45;;;;;;;8.21;48.78;100199.31;6161215;23;20322;-79
2024/01/26 12:21:47;;;;;;;15.88;7.07;;;;;;;8.22;48.11;100199.13;6202810;23;20441;-81
2024/01/26 12:24:34;;;;;;;13.30;3.60;;;;;;;8.32;49.01;100198.81;6182648;23;20314;-79
2024/01/26 12:27:19;;;;;;;8.93;3.05;;;;;;;8.32;48.09;100201.47;6203593;23;20032;-80
2024/01/26 12:30:05;;;;;;;9.20;4.32;;;;;;;8.23;49.09;100192.00;6203718;23;20047;-80
2024/01/26 12:32:51;;;;;;;6.45;2.92;;;;;;;8.29;48.51;100194.72;6203222;23;20318;-79
2024/01/26 12:35:40;;;;;;;5.55;2.65;;;;;;;8.22;48.11;100177.94;6204619;23;20032;-80
2024/01/26 12:38:25;;;;;;;9.43;3.03;;;;;;;8.21;48.18;100178.13;6187920;23;20311;-80
2024/01/26 12:41:10;;;;;;;7.90;2.25;;;;;;;8.34;48.45;100194.97;6178081;23;20023;-80
2024/01/26 12:43:56;;;;;;;8.40;3.63;;;;;;;8.46;48.19;100199.75;6221550;23;20027;-80
2024/01/26 12:46:42;;;;;;;14.00;4.80;;;;;;;8.45;49.21;100201.59;6175949;23;20310;-80
2024/01/26 12:49:28;;;;;;;3.90;2.22;;;;;;;8.47;48.49;100202.22;6202865;23;20024;-81
2024/01/26 12:52:15;;;;;;;11.25;4.55;;;;;;;8.53;48.00;100206.75;6203316;23;20027;-82